sensor_id;sensor_type;location;lat;lon;timestamp;temperature;humidity
16198;DHT22;8206;51.440;6.914;2022-08-05T00:02:19;19.40;1.00
16198;DHT22;8206;51.440;6.914;2022-08-05T00:04:47;19.30;1.00
16198;DHT22;8206;51.440;6.914;2022-08-05T00:07:14;19.30;1.00
16198;DHT22;8206;51.440;6.914;2022-08-05T00:09:42;19.20;1.00
16198;DHT22;8206;51.440;6.914;2022-08-05T00:12:09;19.20;1.00
16198;DHT22;8206;51.440;6.914;2022-08-05T00:14:36;19.20;1.00
16198;DHT22;8206;51.440;6.914;2022-08-05T00:17:02;19.10;1.00
16198;DHT22;8206;51.440;6.914;2022-08-05T00:19:29;19.20;1.00
16198;DHT22;8206;51.440;6.914;2022-08-05T00:21:58;19.20;1.00
16198;DHT22;8206;51.440;6.914;2022-08-05T00:24:24;19.10;1.00
16198;DHT22;8206;51.440;6.914;2022-08-05T00:26:52;19.10;1.00
16198;DHT22;8206;51.440;6.914;2022-08-05T00:29:19;19.10;1.00
16198;DHT22;8206;51.440;6.914;2022-08-05T00:31:46;19.10;1.00
16198;DHT22;8206;51.440;6.914;2022-08-05T00:34:13;19.00;1.00
16198;DHT22;8206;51.440;6.914;2022-08-05T00:36:40;19.00;1.00
16198;DHT22;8206;51.440;6.914;2022-08-05T00:39:08;19.00;1.00
16198;DHT22;8206;51.440;6.914;2022-08-05T00:41:35;19.10;1.00
16198;DHT22;8206;51.440;6.914;2022-08-05T00:44:02;19.10;1.00
16198;DHT22;8206;51.440;6.914;2022-08-05T00:46:29;19.20;1.00
16198;DHT22;8206;51.440;6.914;2022-08-05T00:48:56;19.10;1.00
16198;DHT22;8206;51.440;6.914;2022-08-05T00:51:23;19.10;1.00
16198;DHT22;8206;51.440;6.914;2022-08-05T00:53:50;19.10;1.00
16198;DHT22;8206;51.440;6.914;2022-08-05T00:56:18;19.00;1.00
16198;DHT22;8206;51.440;6.914;2022-08-05T00:58:45;19.00;1.00
16198;DHT22;8206;51.440;6.914;2022-08-05T01:01:12;19.00;1.00
16198;DHT22;8206;51.440;6.914;2022-08-05T01:03:40;18.90;1.00
16198;DHT22;8206;51.440;6.914;2022-08-05T01:06:08;18.80;76.90
16198;DHT22;8206;51.440;6.914;2022-08-05T01:08:34;18.70;99.90
16198;DHT22;8206;51.440;6.914;2022-08-05T01:11:06;18.70;1.00
16198;DHT22;8206;51.440;6.914;2022-08-05T01:13:44;18.70;1.00
16198;DHT22;8206;51.440;6.914;2022-08-05T01:16:19;18.60;37.90
16198;DHT22;8206;51.440;6.914;2022-08-05T01:18:50;18.70;1.00
16198;DHT22;8206;51.440;6.914;2022-08-05T01:21:35;18.50;99.90
16198;DHT22;8206;51.440;6.914;2022-08-05T01:24:18;18.50;1.00
16198;DHT22;8206;51.440;6.914;2022-08-05T01:26:58;18.50;99.90
16198;DHT22;8206;51.440;6.914;2022-08-05T01:29:32;18.50;99.90
16198;DHT22;8206;51.440;6.914;2022-08-05T01:32:01;18.50;1.00
16198;DHT22;8206;51.440;6.914;2022-08-05T01:34:32;18.50;1.00
16198;DHT22;8206;51.440;6.914;2022-08-05T01:37:04;18.50;1.00
16198;DHT22;8206;51.440;6.914;2022-08-05T01:39:33;18.40;99.90
16198;DHT22;8206;51.440;6.914;2022-08-05T01:42:01;18.40;99.90
16198;DHT22;8206;51.440;6.914;2022-08-05T01:44:30;18.40;99.90
16198;DHT22;8206;51.440;6.914;2022-08-05T01:46:58;18.40;1.00
16198;DHT22;8206;51.440;6.914;2022-08-05T01:49:27;18.40;1.00
16198;DHT22;8206;51.440;6.914;2022-08-05T01:51:56;18.40;1.00
16198;DHT22;8206;51.440;6.914;2022-08-05T01:54:27;18.50;99.90
16198;DHT22;8206;51.440;6.914;2022-08-05T01:56:56;18.50;1.00
16198;DHT22;8206;51.440;6.914;2022-08-05T01:59:25;18.50;1.00
16198;DHT22;8206;51.440;6.914;2022-08-05T02:01:56;18.50;99.90
16198;DHT22;8206;51.440;6.914;2022-08-05T02:04:25;18.50;99.90
16198;DHT22;8206;51.440;6.914;2022-08-05T02:06:53;18.50;99.90
16198;DHT22;8206;51.440;6.914;2022-08-05T02:09:21;18.50;99.90
16198;DHT22;8206;51.440;6.914;2022-08-05T02:12:05;18.60;99.90
16198;DHT22;8206;51.440;6.914;2022-08-05T02:14:39;18.50;24.40
16198;DHT22;8206;51.440;6.914;2022-08-05T02:17:11;18.50;99.90
16198;DHT22;8206;51.440;6.914;2022-08-05T02:19:43;18.50;99.90
16198;DHT22;8206;51.440;6.914;2022-08-05T02:22:15;18.60;17.70
16198;DHT22;8206;51.440;6.914;2022-08-05T02:24:45;18.60;1.00
16198;DHT22;8206;51.440;6.914;2022-08-05T02:27:14;18.60;1.00
16198;DHT22;8206;51.440;6.914;2022-08-05T02:29:43;18.60;1.00
16198;DHT22;8206;51.440;6.914;2022-08-05T02:32:12;18.70;1.00
16198;DHT22;8206;51.440;6.914;2022-08-05T02:34:40;18.60;1.00
16198;DHT22;8206;51.440;6.914;2022-08-05T02:37:08;18.60;52.00
16198;DHT22;8206;51.440;6.914;2022-08-05T02:39:37;18.60;99.90
16198;DHT22;8206;51.440;6.914;2022-08-05T02:42:06;18.50;1.00
16198;DHT22;8206;51.440;6.914;2022-08-05T02:44:34;18.40;99.90
16198;DHT22;8206;51.440;6.914;2022-08-05T02:47:02;18.40;99.90
16198;DHT22;8206;51.440;6.914;2022-08-05T02:49:34;18.40;1.00
16198;DHT22;8206;51.440;6.914;2022-08-05T02:52:03;18.40;1.00
16198;DHT22;8206;51.440;6.914;2022-08-05T02:54:31;18.40;1.00
16198;DHT22;8206;51.440;6.914;2022-08-05T02:57:00;18.50;1.00
16198;DHT22;8206;51.440;6.914;2022-08-05T02:59:28;18.40;99.90
16198;DHT22;8206;51.440;6.914;2022-08-05T03:01:55;18.30;99.90
16198;DHT22;8206;51.440;6.914;2022-08-05T03:04:25;18.30;1.00
16198;DHT22;8206;51.440;6.914;2022-08-05T03:06:54;18.40;1.00
16198;DHT22;8206;51.440;6.914;2022-08-05T03:09:21;18.40;39.90
16198;DHT22;8206;51.440;6.914;2022-08-05T03:11:48;18.40;1.00
16198;DHT22;8206;51.440;6.914;2022-08-05T03:14:16;18.40;99.90
16198;DHT22;8206;51.440;6.914;2022-08-05T03:16:43;18.40;94.00
16198;DHT22;8206;51.440;6.914;2022-08-05T03:19:09;18.30;99.90
16198;DHT22;8206;51.440;6.914;2022-08-05T03:21:36;18.30;99.90
16198;DHT22;8206;51.440;6.914;2022-08-05T03:24:05;18.20;1.00
16198;DHT22;8206;51.440;6.914;2022-08-05T03:26:32;18.10;1.00
16198;DHT22;8206;51.440;6.914;2022-08-05T03:28:59;18.10;1.00
16198;DHT22;8206;51.440;6.914;2022-08-05T03:31:27;18.10;1.00
16198;DHT22;8206;51.440;6.914;2022-08-05T03:33:54;18.00;1.00
16198;DHT22;8206;51.440;6.914;2022-08-05T03:36:22;17.80;99.90
16198;DHT22;8206;51.440;6.914;2022-08-05T03:38:49;17.70;36.20
16198;DHT22;8206;51.440;6.914;2022-08-05T03:41:17;17.60;99.90
16198;DHT22;8206;51.440;6.914;2022-08-05T03:43:44;17.50;99.90
16198;DHT22;8206;51.440;6.914;2022-08-05T03:46:11;17.50;1.00
16198;DHT22;8206;51.440;6.914;2022-08-05T03:48:38;17.40;1.00
16198;DHT22;8206;51.440;6.914;2022-08-05T03:51:11;17.40;1.00
16198;DHT22;8206;51.440;6.914;2022-08-05T03:53:42;17.40;1.00
16198;DHT22;8206;51.440;6.914;2022-08-05T03:56:21;17.30;1.00
16198;DHT22;8206;51.440;6.914;2022-08-05T03:58:49;17.40;1.00
16198;DHT22;8206;51.440;6.914;2022-08-05T04:01:18;17.40;1.00
16198;DHT22;8206;51.440;6.914;2022-08-05T04:03:48;17.40;1.00
16198;DHT22;8206;51.440;6.914;2022-08-05T04:06:16;17.50;1.00
16198;DHT22;8206;51.440;6.914;2022-08-05T04:08:44;17.50;1.00
16198;DHT22;8206;51.440;6.914;2022-08-05T04:11:11;17.50;1.00
16198;DHT22;8206;51.440;6.914;2022-08-05T04:13:40;17.50;1.00
16198;DHT22;8206;51.440;6.914;2022-08-05T04:16:08;17.60;1.00
16198;DHT22;8206;51.440;6.914;2022-08-05T04:18:35;17.70;1.00
16198;DHT22;8206;51.440;6.914;2022-08-05T04:21:04;17.60;28.90
16198;DHT22;8206;51.440;6.914;2022-08-05T04:23:32;17.60;53.00
16198;DHT22;8206;51.440;6.914;2022-08-05T04:25:59;17.60;74.90
16198;DHT22;8206;51.440;6.914;2022-08-05T04:28:26;17.60;86.20
16198;DHT22;8206;51.440;6.914;2022-08-05T04:30:55;17.60;95.80
16198;DHT22;8206;51.440;6.914;2022-08-05T04:33:21;17.60;99.90
16198;DHT22;8206;51.440;6.914;2022-08-05T04:35:48;17.60;99.90
16198;DHT22;8206;51.440;6.914;2022-08-05T04:38:15;17.70;99.90
16198;DHT22;8206;51.440;6.914;2022-08-05T04:40:42;17.70;99.90
16198;DHT22;8206;51.440;6.914;2022-08-05T04:43:09;17.70;99.90
16198;DHT22;8206;51.440;6.914;2022-08-05T04:45:36;17.60;99.90
16198;DHT22;8206;51.440;6.914;2022-08-05T04:48:05;17.70;99.90
16198;DHT22;8206;51.440;6.914;2022-08-05T04:50:38;17.70;99.90
16198;DHT22;8206;51.440;6.914;2022-08-05T04:53:06;17.70;99.90
16198;DHT22;8206;51.440;6.914;2022-08-05T04:55:34;17.70;99.90
16198;DHT22;8206;51.440;6.914;2022-08-05T04:58:00;17.70;99.90
16198;DHT22;8206;51.440;6.914;2022-08-05T05:00:27;17.70;99.90
16198;DHT22;8206;51.440;6.914;2022-08-05T05:02:54;17.80;99.90
16198;DHT22;8206;51.440;6.914;2022-08-05T05:05:22;17.90;99.90
16198;DHT22;8206;51.440;6.914;2022-08-05T05:07:49;18.00;99.90
16198;DHT22;8206;51.440;6.914;2022-08-05T05:10:16;18.00;99.90
16198;DHT22;8206;51.440;6.914;2022-08-05T05:12:43;18.10;99.90
16198;DHT22;8206;51.440;6.914;2022-08-05T05:15:10;18.10;99.90
16198;DHT22;8206;51.440;6.914;2022-08-05T05:17:37;18.10;99.90
16198;DHT22;8206;51.440;6.914;2022-08-05T05:20:06;18.20;99.90
16198;DHT22;8206;51.440;6.914;2022-08-05T05:22:34;18.30;99.90
16198;DHT22;8206;51.440;6.914;2022-08-05T05:25:02;18.30;99.90
16198;DHT22;8206;51.440;6.914;2022-08-05T05:27:31;18.30;99.90
16198;DHT22;8206;51.440;6.914;2022-08-05T05:29:58;18.20;99.90
16198;DHT22;8206;51.440;6.914;2022-08-05T05:32:25;18.30;99.90
16198;DHT22;8206;51.440;6.914;2022-08-05T05:34:52;18.30;99.90
16198;DHT22;8206;51.440;6.914;2022-08-05T05:37:19;18.50;99.90
16198;DHT22;8206;51.440;6.914;2022-08-05T05:39:47;18.50;99.90
16198;DHT22;8206;51.440;6.914;2022-08-05T05:42:14;18.40;99.90
16198;DHT22;8206;51.440;6.914;2022-08-05T05:44:40;18.30;99.90
16198;DHT22;8206;51.440;6.914;2022-08-05T05:47:07;18.30;99.90
16198;DHT22;8206;51.440;6.914;2022-08-05T05:49:34;18.20;99.90
16198;DHT22;8206;51.440;6.914;2022-08-05T05:52:02;18.30;99.90
16198;DHT22;8206;51.440;6.914;2022-08-05T05:54:28;18.30;99.90
16198;DHT22;8206;51.440;6.914;2022-08-05T05:56:57;18.20;99.90
16198;DHT22;8206;51.440;6.914;2022-08-05T05:59:23;18.20;99.90
16198;DHT22;8206;51.440;6.914;2022-08-05T06:01:50;18.10;99.90
16198;DHT22;8206;51.440;6.914;2022-08-05T06:04:17;18.00;99.90
16198;DHT22;8206;51.440;6.914;2022-08-05T06:06:44;18.00;99.90
16198;DHT22;8206;51.440;6.914;2022-08-05T06:09:11;17.90;99.90
16198;DHT22;8206;51.440;6.914;2022-08-05T06:11:37;17.90;99.90
16198;DHT22;8206;51.440;6.914;2022-08-05T06:14:06;17.80;99.90
16198;DHT22;8206;51.440;6.914;2022-08-05T06:16:33;17.80;99.90
16198;DHT22;8206;51.440;6.914;2022-08-05T06:18:59;17.70;99.90
16198;DHT22;8206;51.440;6.914;2022-08-05T06:21:26;17.80;99.90
16198;DHT22;8206;51.440;6.914;2022-08-05T06:23:53;17.70;99.90
16198;DHT22;8206;51.440;6.914;2022-08-05T06:26:20;17.70;99.90
16198;DHT22;8206;51.440;6.914;2022-08-05T06:28:47;17.70;99.90
16198;DHT22;8206;51.440;6.914;2022-08-05T06:31:15;17.70;99.90
16198;DHT22;8206;51.440;6.914;2022-08-05T06:33:42;17.70;99.90
16198;DHT22;8206;51.440;6.914;2022-08-05T06:36:08;17.60;99.90
16198;DHT22;8206;51.440;6.914;2022-08-05T06:38:35;17.50;99.90
16198;DHT22;8206;51.440;6.914;2022-08-05T06:41:02;17.40;99.90
16198;DHT22;8206;51.440;6.914;2022-08-05T06:43:30;17.30;99.90
16198;DHT22;8206;51.440;6.914;2022-08-05T06:45:56;17.30;99.90
16198;DHT22;8206;51.440;6.914;2022-08-05T06:48:25;17.30;99.90
16198;DHT22;8206;51.440;6.914;2022-08-05T06:50:51;17.30;99.90
16198;DHT22;8206;51.440;6.914;2022-08-05T06:53:18;17.20;99.90
16198;DHT22;8206;51.440;6.914;2022-08-05T06:55:45;17.20;99.90
16198;DHT22;8206;51.440;6.914;2022-08-05T06:58:12;17.20;99.90
16198;DHT22;8206;51.440;6.914;2022-08-05T07:00:39;17.30;99.90
16198;DHT22;8206;51.440;6.914;2022-08-05T07:03:05;17.30;99.90
16198;DHT22;8206;51.440;6.914;2022-08-05T07:05:34;17.40;99.90
16198;DHT22;8206;51.440;6.914;2022-08-05T07:08:00;17.50;99.90
16198;DHT22;8206;51.440;6.914;2022-08-05T07:10:27;17.50;99.90
16198;DHT22;8206;51.440;6.914;2022-08-05T07:12:54;17.60;99.90
16198;DHT22;8206;51.440;6.914;2022-08-05T07:15:38;17.60;99.90
16198;DHT22;8206;51.440;6.914;2022-08-05T07:18:22;17.70;99.90
16198;DHT22;8206;51.440;6.914;2022-08-05T07:20:51;17.80;99.90
16198;DHT22;8206;51.440;6.914;2022-08-05T07:23:18;17.80;99.90
16198;DHT22;8206;51.440;6.914;2022-08-05T07:25:45;17.80;99.90
16198;DHT22;8206;51.440;6.914;2022-08-05T07:28:12;17.70;99.90
16198;DHT22;8206;51.440;6.914;2022-08-05T07:30:38;17.60;99.90
16198;DHT22;8206;51.440;6.914;2022-08-05T07:33:07;17.50;99.90
16198;DHT22;8206;51.440;6.914;2022-08-05T07:35:35;17.40;99.90
16198;DHT22;8206;51.440;6.914;2022-08-05T07:38:03;17.40;99.90
16198;DHT22;8206;51.440;6.914;2022-08-05T07:40:30;17.20;99.90
16198;DHT22;8206;51.440;6.914;2022-08-05T07:42:57;17.30;99.90
16198;DHT22;8206;51.440;6.914;2022-08-05T07:45:24;17.30;99.90
16198;DHT22;8206;51.440;6.914;2022-08-05T07:47:50;17.20;99.90
16198;DHT22;8206;51.440;6.914;2022-08-05T07:50:17;17.30;99.90
16198;DHT22;8206;51.440;6.914;2022-08-05T07:52:44;17.40;99.90
16198;DHT22;8206;51.440;6.914;2022-08-05T07:55:13;17.40;99.90
16198;DHT22;8206;51.440;6.914;2022-08-05T07:57:40;17.30;99.90
16198;DHT22;8206;51.440;6.914;2022-08-05T08:00:08;17.40;99.90
16198;DHT22;8206;51.440;6.914;2022-08-05T08:02:35;17.40;99.90
16198;DHT22;8206;51.440;6.914;2022-08-05T08:05:02;17.40;99.90
16198;DHT22;8206;51.440;6.914;2022-08-05T08:07:29;17.30;99.90
16198;DHT22;8206;51.440;6.914;2022-08-05T08:09:56;17.30;99.90
16198;DHT22;8206;51.440;6.914;2022-08-05T08:12:24;17.20;99.90
16198;DHT22;8206;51.440;6.914;2022-08-05T08:14:51;17.30;99.90
16198;DHT22;8206;51.440;6.914;2022-08-05T08:17:18;17.30;99.90
16198;DHT22;8206;51.440;6.914;2022-08-05T08:19:45;17.30;99.90
16198;DHT22;8206;51.440;6.914;2022-08-05T08:22:12;17.30;99.90
16198;DHT22;8206;51.440;6.914;2022-08-05T08:24:39;17.40;99.90
16198;DHT22;8206;51.440;6.914;2022-08-05T08:27:06;17.60;99.90
16198;DHT22;8206;51.440;6.914;2022-08-05T08:29:34;17.50;99.90
16198;DHT22;8206;51.440;6.914;2022-08-05T08:32:01;17.40;99.90
16198;DHT22;8206;51.440;6.914;2022-08-05T08:34:28;17.50;99.90
16198;DHT22;8206;51.440;6.914;2022-08-05T08:36:55;17.50;99.90
16198;DHT22;8206;51.440;6.914;2022-08-05T08:39:21;17.80;99.90
16198;DHT22;8206;51.440;6.914;2022-08-05T08:41:49;17.80;99.90
16198;DHT22;8206;51.440;6.914;2022-08-05T08:44:19;17.80;92.10
16198;DHT22;8206;51.440;6.914;2022-08-05T08:46:48;17.80;96.50
16198;DHT22;8206;51.440;6.914;2022-08-05T08:49:17;17.80;99.90
16198;DHT22;8206;51.440;6.914;2022-08-05T08:51:47;17.70;99.90
16198;DHT22;8206;51.440;6.914;2022-08-05T08:54:15;17.80;99.90
16198;DHT22;8206;51.440;6.914;2022-08-05T08:56:42;17.70;99.90
16198;DHT22;8206;51.440;6.914;2022-08-05T08:59:10;17.80;99.50
16198;DHT22;8206;51.440;6.914;2022-08-05T09:01:37;17.90;87.80
16198;DHT22;8206;51.440;6.914;2022-08-05T09:04:07;17.90;88.30
16198;DHT22;8206;51.440;6.914;2022-08-05T09:06:34;18.10;78.20
16198;DHT22;8206;51.440;6.914;2022-08-05T09:11:28;17.90;68.90
16198;DHT22;8206;51.440;6.914;2022-08-05T09:13:55;17.90;71.30
16198;DHT22;8206;51.440;6.914;2022-08-05T09:16:22;18.00;93.30
16198;DHT22;8206;51.440;6.914;2022-08-05T09:18:49;18.00;56.40
16198;DHT22;8206;51.440;6.914;2022-08-05T09:21:18;18.10;76.10
16198;DHT22;8206;51.440;6.914;2022-08-05T09:24:01;18.30;94.40
16198;DHT22;8206;51.440;6.914;2022-08-05T09:26:28;18.60;67.20
16198;DHT22;8206;51.440;6.914;2022-08-05T09:28:58;18.70;47.30
16198;DHT22;8206;51.440;6.914;2022-08-05T09:31:25;18.80;5.30
16198;DHT22;8206;51.440;6.914;2022-08-05T09:33:53;18.90;99.90
16198;DHT22;8206;51.440;6.914;2022-08-05T09:36:22;18.80;1.00
16198;DHT22;8206;51.440;6.914;2022-08-05T09:38:56;18.80;1.00
16198;DHT22;8206;51.440;6.914;2022-08-05T09:41:23;18.70;1.00
16198;DHT22;8206;51.440;6.914;2022-08-05T09:43:51;18.50;1.00
16198;DHT22;8206;51.440;6.914;2022-08-05T09:46:25;18.40;1.00
16198;DHT22;8206;51.440;6.914;2022-08-05T09:48:52;18.40;1.00
16198;DHT22;8206;51.440;6.914;2022-08-05T09:51:32;18.50;1.00
16198;DHT22;8206;51.440;6.914;2022-08-05T09:53:59;18.70;1.00
16198;DHT22;8206;51.440;6.914;2022-08-05T09:56:31;18.70;1.00
16198;DHT22;8206;51.440;6.914;2022-08-05T09:58:59;18.80;1.00
16198;DHT22;8206;51.440;6.914;2022-08-05T10:01:27;18.90;1.00
16198;DHT22;8206;51.440;6.914;2022-08-05T10:03:59;19.20;1.00
16198;DHT22;8206;51.440;6.914;2022-08-05T10:06:27;19.50;1.00
16198;DHT22;8206;51.440;6.914;2022-08-05T10:09:09;19.80;1.00
16198;DHT22;8206;51.440;6.914;2022-08-05T10:11:36;20.10;1.00
16198;DHT22;8206;51.440;6.914;2022-08-05T10:14:21;20.30;99.90
16198;DHT22;8206;51.440;6.914;2022-08-05T10:16:48;20.20;99.90
16198;DHT22;8206;51.440;6.914;2022-08-05T10:19:15;20.00;99.90
16198;DHT22;8206;51.440;6.914;2022-08-05T10:21:43;20.30;99.90
16198;DHT22;8206;51.440;6.914;2022-08-05T10:24:12;20.40;99.90
16198;DHT22;8206;51.440;6.914;2022-08-05T10:26:39;20.80;99.90
16198;DHT22;8206;51.440;6.914;2022-08-05T10:29:07;20.90;99.90
16198;DHT22;8206;51.440;6.914;2022-08-05T10:31:35;21.00;99.90
16198;DHT22;8206;51.440;6.914;2022-08-05T10:34:04;21.20;99.90
16198;DHT22;8206;51.440;6.914;2022-08-05T10:36:32;21.30;99.90
16198;DHT22;8206;51.440;6.914;2022-08-05T10:39:03;21.20;99.90
16198;DHT22;8206;51.440;6.914;2022-08-05T10:41:34;21.40;99.90
16198;DHT22;8206;51.440;6.914;2022-08-05T10:44:06;21.80;99.90
16198;DHT22;8206;51.440;6.914;2022-08-05T10:46:47;21.90;99.90
16198;DHT22;8206;51.440;6.914;2022-08-05T10:49:15;22.00;99.90
16198;DHT22;8206;51.440;6.914;2022-08-05T10:51:44;22.20;99.90
16198;DHT22;8206;51.440;6.914;2022-08-05T10:54:12;22.50;99.90
16198;DHT22;8206;51.440;6.914;2022-08-05T10:56:45;22.80;99.90
16198;DHT22;8206;51.440;6.914;2022-08-05T10:59:16;22.70;99.90
16198;DHT22;8206;51.440;6.914;2022-08-05T11:01:43;22.70;99.90
16198;DHT22;8206;51.440;6.914;2022-08-05T11:04:11;22.60;99.90
16198;DHT22;8206;51.440;6.914;2022-08-05T11:07:04;22.40;99.90
16198;DHT22;8206;51.440;6.914;2022-08-05T11:09:43;22.60;99.90
16198;DHT22;8206;51.440;6.914;2022-08-05T11:12:41;22.80;99.90
16198;DHT22;8206;51.440;6.914;2022-08-05T11:15:16;22.70;99.90
16198;DHT22;8206;51.440;6.914;2022-08-05T11:17:43;22.80;99.90
16198;DHT22;8206;51.440;6.914;2022-08-05T11:26:10;23.60;99.90
16198;DHT22;8206;51.440;6.914;2022-08-05T11:28:48;23.40;99.90
16198;DHT22;8206;51.440;6.914;2022-08-05T11:31:23;23.70;99.90
16198;DHT22;8206;51.440;6.914;2022-08-05T11:33:58;23.60;99.90
16198;DHT22;8206;51.440;6.914;2022-08-05T11:36:41;23.80;99.90
16198;DHT22;8206;51.440;6.914;2022-08-05T11:39:11;24.10;99.90
16198;DHT22;8206;51.440;6.914;2022-08-05T11:41:39;23.90;99.90
16198;DHT22;8206;51.440;6.914;2022-08-05T11:44:09;23.50;99.90
16198;DHT22;8206;51.440;6.914;2022-08-05T11:46:38;23.60;99.90
16198;DHT22;8206;51.440;6.914;2022-08-05T11:49:06;23.50;99.90
16198;DHT22;8206;51.440;6.914;2022-08-05T11:51:34;23.60;99.90
16198;DHT22;8206;51.440;6.914;2022-08-05T11:54:01;23.80;99.90
16198;DHT22;8206;51.440;6.914;2022-08-05T11:56:42;24.00;99.90
16198;DHT22;8206;51.440;6.914;2022-08-05T11:59:14;23.80;99.90
16198;DHT22;8206;51.440;6.914;2022-08-05T12:01:58;23.50;99.90
16198;DHT22;8206;51.440;6.914;2022-08-05T12:04:26;23.20;99.90
16198;DHT22;8206;51.440;6.914;2022-08-05T12:06:53;22.90;99.90
16198;DHT22;8206;51.440;6.914;2022-08-05T12:09:23;22.50;99.90
16198;DHT22;8206;51.440;6.914;2022-08-05T12:11:51;22.50;99.90
16198;DHT22;8206;51.440;6.914;2022-08-05T12:14:20;22.70;99.90
16198;DHT22;8206;51.440;6.914;2022-08-05T12:16:48;22.90;99.90
16198;DHT22;8206;51.440;6.914;2022-08-05T12:19:16;23.10;99.90
16198;DHT22;8206;51.440;6.914;2022-08-05T12:21:46;23.20;99.90
16198;DHT22;8206;51.440;6.914;2022-08-05T12:24:15;23.10;99.90
16198;DHT22;8206;51.440;6.914;2022-08-05T12:26:44;23.20;99.90
16198;DHT22;8206;51.440;6.914;2022-08-05T12:29:12;23.50;99.90
16198;DHT22;8206;51.440;6.914;2022-08-05T12:31:44;23.80;99.90
16198;DHT22;8206;51.440;6.914;2022-08-05T12:34:11;24.00;99.90
16198;DHT22;8206;51.440;6.914;2022-08-05T12:36:39;24.30;99.90
16198;DHT22;8206;51.440;6.914;2022-08-05T12:39:06;24.50;99.90
16198;DHT22;8206;51.440;6.914;2022-08-05T12:41:35;24.30;99.90
16198;DHT22;8206;51.440;6.914;2022-08-05T12:44:04;24.30;99.90
16198;DHT22;8206;51.440;6.914;2022-08-05T12:46:33;23.90;99.90
16198;DHT22;8206;51.440;6.914;2022-08-05T12:49:06;23.60;99.90
16198;DHT22;8206;51.440;6.914;2022-08-05T12:51:43;23.10;99.90
16198;DHT22;8206;51.440;6.914;2022-08-05T12:54:18;22.70;99.90
16198;DHT22;8206;51.440;6.914;2022-08-05T12:56:47;22.80;99.90
16198;DHT22;8206;51.440;6.914;2022-08-05T12:59:16;22.80;99.90
16198;DHT22;8206;51.440;6.914;2022-08-05T13:01:44;22.90;99.90
16198;DHT22;8206;51.440;6.914;2022-08-05T13:04:19;23.00;99.90
16198;DHT22;8206;51.440;6.914;2022-08-05T13:06:46;22.90;99.90
16198;DHT22;8206;51.440;6.914;2022-08-05T13:09:13;22.80;99.90
16198;DHT22;8206;51.440;6.914;2022-08-05T13:11:41;22.90;99.90
16198;DHT22;8206;51.440;6.914;2022-08-05T13:14:10;23.00;99.90
16198;DHT22;8206;51.440;6.914;2022-08-05T13:16:53;22.90;99.90
16198;DHT22;8206;51.440;6.914;2022-08-05T13:19:24;22.80;99.90
16198;DHT22;8206;51.440;6.914;2022-08-05T13:21:51;22.70;99.90
16198;DHT22;8206;51.440;6.914;2022-08-05T13:24:19;22.50;99.90
16198;DHT22;8206;51.440;6.914;2022-08-05T13:26:48;22.30;99.90
16198;DHT22;8206;51.440;6.914;2022-08-05T13:29:15;22.30;99.90
16198;DHT22;8206;51.440;6.914;2022-08-05T13:31:42;22.30;99.90
16198;DHT22;8206;51.440;6.914;2022-08-05T13:34:09;22.30;99.90
16198;DHT22;8206;51.440;6.914;2022-08-05T13:36:38;22.30;99.90
16198;DHT22;8206;51.440;6.914;2022-08-05T13:39:06;22.30;99.90
16198;DHT22;8206;51.440;6.914;2022-08-05T13:41:33;22.20;99.90
16198;DHT22;8206;51.440;6.914;2022-08-05T13:44:00;22.10;99.90
16198;DHT22;8206;51.440;6.914;2022-08-05T13:46:26;22.00;99.90
16198;DHT22;8206;51.440;6.914;2022-08-05T13:48:53;22.00;99.90
16198;DHT22;8206;51.440;6.914;2022-08-05T13:51:32;21.90;99.90
16198;DHT22;8206;51.440;6.914;2022-08-05T13:54:00;21.80;99.90
16198;DHT22;8206;51.440;6.914;2022-08-05T13:56:27;21.70;99.90
16198;DHT22;8206;51.440;6.914;2022-08-05T13:58:54;21.70;99.90
16198;DHT22;8206;51.440;6.914;2022-08-05T14:01:21;21.80;99.90
16198;DHT22;8206;51.440;6.914;2022-08-05T14:03:48;22.00;99.90
16198;DHT22;8206;51.440;6.914;2022-08-05T14:06:28;22.00;99.90
16198;DHT22;8206;51.440;6.914;2022-08-05T14:08:55;22.10;99.90
16198;DHT22;8206;51.440;6.914;2022-08-05T14:11:23;22.20;99.90
16198;DHT22;8206;51.440;6.914;2022-08-05T14:13:50;22.40;99.90
16198;DHT22;8206;51.440;6.914;2022-08-05T14:16:17;22.80;99.90
16198;DHT22;8206;51.440;6.914;2022-08-05T14:18:44;22.90;99.90
16198;DHT22;8206;51.440;6.914;2022-08-05T14:21:11;23.00;99.90
16198;DHT22;8206;51.440;6.914;2022-08-05T14:23:37;23.20;99.90
16198;DHT22;8206;51.440;6.914;2022-08-05T14:26:04;23.40;99.90
16198;DHT22;8206;51.440;6.914;2022-08-05T14:28:33;23.60;99.90
16198;DHT22;8206;51.440;6.914;2022-08-05T14:31:00;23.80;99.90
16198;DHT22;8206;51.440;6.914;2022-08-05T14:33:27;23.80;99.90
16198;DHT22;8206;51.440;6.914;2022-08-05T14:35:55;24.00;99.90
16198;DHT22;8206;51.440;6.914;2022-08-05T14:38:22;23.60;99.90
16198;DHT22;8206;51.440;6.914;2022-08-05T14:40:48;23.40;99.90
16198;DHT22;8206;51.440;6.914;2022-08-05T14:43:16;23.10;99.90
16198;DHT22;8206;51.440;6.914;2022-08-05T14:45:44;22.90;99.90
16198;DHT22;8206;51.440;6.914;2022-08-05T14:48:11;22.90;99.90
16198;DHT22;8206;51.440;6.914;2022-08-05T14:50:37;23.10;99.90
16198;DHT22;8206;51.440;6.914;2022-08-05T14:53:04;23.20;99.90
16198;DHT22;8206;51.440;6.914;2022-08-05T14:55:31;23.40;99.90
16198;DHT22;8206;51.440;6.914;2022-08-05T14:57:58;23.50;99.90
16198;DHT22;8206;51.440;6.914;2022-08-05T15:00:25;24.00;99.90
16198;DHT22;8206;51.440;6.914;2022-08-05T15:02:53;24.20;99.90
16198;DHT22;8206;51.440;6.914;2022-08-05T15:05:20;24.20;99.90
16198;DHT22;8206;51.440;6.914;2022-08-05T15:07:46;24.20;99.90
16198;DHT22;8206;51.440;6.914;2022-08-05T15:10:13;24.10;99.90
16198;DHT22;8206;51.440;6.914;2022-08-05T15:12:40;24.00;99.90
16198;DHT22;8206;51.440;6.914;2022-08-05T15:15:08;24.10;99.90
16198;DHT22;8206;51.440;6.914;2022-08-05T15:17:35;24.30;99.90
16198;DHT22;8206;51.440;6.914;2022-08-05T15:20:05;24.40;99.90
16198;DHT22;8206;51.440;6.914;2022-08-05T15:22:32;24.40;99.90
16198;DHT22;8206;51.440;6.914;2022-08-05T15:24:59;24.30;99.90
16198;DHT22;8206;51.440;6.914;2022-08-05T15:27:26;24.30;99.90
16198;DHT22;8206;51.440;6.914;2022-08-05T15:29:53;24.20;99.90
16198;DHT22;8206;51.440;6.914;2022-08-05T15:32:20;24.20;99.90
16198;DHT22;8206;51.440;6.914;2022-08-05T15:34:46;24.20;99.90
16198;DHT22;8206;51.440;6.914;2022-08-05T15:37:15;24.10;99.90
16198;DHT22;8206;51.440;6.914;2022-08-05T15:39:42;23.90;99.90
16198;DHT22;8206;51.440;6.914;2022-08-05T15:42:09;23.50;99.90
16198;DHT22;8206;51.440;6.914;2022-08-05T15:44:38;23.10;99.90
16198;DHT22;8206;51.440;6.914;2022-08-05T15:47:06;22.90;99.90
16198;DHT22;8206;51.440;6.914;2022-08-05T15:49:33;23.00;99.90
16198;DHT22;8206;51.440;6.914;2022-08-05T15:52:00;23.10;99.90
16198;DHT22;8206;51.440;6.914;2022-08-05T15:54:28;23.20;99.90
16198;DHT22;8206;51.440;6.914;2022-08-05T15:56:55;23.20;99.90
16198;DHT22;8206;51.440;6.914;2022-08-05T15:59:21;22.90;99.90
16198;DHT22;8206;51.440;6.914;2022-08-05T16:01:49;22.70;99.90
16198;DHT22;8206;51.440;6.914;2022-08-05T16:04:16;22.60;99.90
16198;DHT22;8206;51.440;6.914;2022-08-05T16:06:43;22.40;99.90
16198;DHT22;8206;51.440;6.914;2022-08-05T16:09:10;22.10;99.90